sensor_id;sensor_type;location;lat;lon;timestamp;P1;durP1;ratioP1;P2;durP2;ratioP2
57395;SDS011;43222;52.912;6.940;2022-12-29T00:02:10;7.93;;;5.47;;
57395;SDS011;43222;52.912;6.940;2022-12-29T00:04:36;6.85;;;5.43;;
57395;SDS011;43222;52.912;6.940;2022-12-29T00:07:02;7.85;;;5.75;;
57395;SDS011;43222;52.912;6.940;2022-12-29T00:09:32;7.28;;;5.38;;
57395;SDS011;43222;52.912;6.940;2022-12-29T00:11:58;7.03;;;5.25;;
57395;SDS011;43222;52.912;6.940;2022-12-29T00:14:24;8.00;;;5.28;;
57395;SDS011;43222;52.912;6.940;2022-12-29T00:17:09;7.28;;;5.38;;
57395;SDS011;43222;52.912;6.940;2022-12-29T00:19:35;9.13;;;5.53;;
57395;SDS011;43222;52.912;6.940;2022-12-29T00:22:20;9.75;;;5.53;;
57395;SDS011;43222;52.912;6.940;2022-12-29T00:25:05;7.43;;;5.28;;
57395;SDS011;43222;52.912;6.940;2022-12-29T00:27:52;6.60;;;4.90;;
57395;SDS011;43222;52.912;6.940;2022-12-29T00:30:37;7.97;;;5.28;;
57395;SDS011;43222;52.912;6.940;2022-12-29T00:33:24;7.38;;;5.15;;
57395;SDS011;43222;52.912;6.940;2022-12-29T00:38:39;8.35;;;5.43;;
57395;SDS011;43222;52.912;6.940;2022-12-29T00:41:25;8.05;;;4.95;;
57395;SDS011;43222;52.912;6.940;2022-12-29T00:44:10;7.07;;;4.82;;
57395;SDS011;43222;52.912;6.940;2022-12-29T00:46:37;8.40;;;5.32;;
57395;SDS011;43222;52.912;6.940;2022-12-29T00:49:04;10.05;;;5.00;;
57395;SDS011;43222;52.912;6.940;2022-12-29T00:51:49;6.75;;;4.57;;
57395;SDS011;43222;52.912;6.940;2022-12-29T00:54:16;8.52;;;5.57;;
57395;SDS011;43222;52.912;6.940;2022-12-29T00:56:42;6.97;;;4.57;;
57395;SDS011;43222;52.912;6.940;2022-12-29T00:59:10;8.27;;;5.00;;
57395;SDS011;43222;52.912;6.940;2022-12-29T01:01:36;7.72;;;4.75;;
57395;SDS011;43222;52.912;6.940;2022-12-29T01:04:03;7.68;;;5.30;;
57395;SDS011;43222;52.912;6.940;2022-12-29T01:06:29;7.63;;;4.35;;
57395;SDS011;43222;52.912;6.940;2022-12-29T01:08:56;7.63;;;4.90;;
57395;SDS011;43222;52.912;6.940;2022-12-29T01:11:41;7.32;;;4.60;;
57395;SDS011;43222;52.912;6.940;2022-12-29T01:14:07;6.10;;;4.35;;
57395;SDS011;43222;52.912;6.940;2022-12-29T01:16:33;6.18;;;4.00;;
57395;SDS011;43222;52.912;6.940;2022-12-29T01:19:01;10.35;;;4.05;;
57395;SDS011;43222;52.912;6.940;2022-12-29T01:21:27;7.38;;;4.10;;
57395;SDS011;43222;52.912;6.940;2022-12-29T01:23:53;6.18;;;4.10;;
57395;SDS011;43222;52.912;6.940;2022-12-29T01:26:19;6.75;;;4.13;;
57395;SDS011;43222;52.912;6.940;2022-12-29T01:28:45;8.10;;;3.70;;
57395;SDS011;43222;52.912;6.940;2022-12-29T01:31:12;7.30;;;3.70;;
57395;SDS011;43222;52.912;6.940;2022-12-29T01:33:39;6.40;;;3.67;;
57395;SDS011;43222;52.912;6.940;2022-12-29T01:36:06;6.05;;;3.88;;
57395;SDS011;43222;52.912;6.940;2022-12-29T01:38:34;6.57;;;3.30;;
57395;SDS011;43222;52.912;6.940;2022-12-29T01:41:00;6.20;;;3.60;;
57395;SDS011;43222;52.912;6.940;2022-12-29T01:44:00;5.97;;;3.53;;
57395;SDS011;43222;52.912;6.940;2022-12-29T01:46:21;5.88;;;3.22;;
57395;SDS011;43222;52.912;6.940;2022-12-29T01:48:53;6.15;;;3.35;;
57395;SDS011;43222;52.912;6.940;2022-12-29T01:51:20;5.82;;;3.33;;
57395;SDS011;43222;52.912;6.940;2022-12-29T01:53:47;6.28;;;3.30;;
57395;SDS011;43222;52.912;6.940;2022-12-29T01:56:14;5.68;;;3.55;;
57395;SDS011;43222;52.912;6.940;2022-12-29T01:58:41;5.60;;;3.30;;
57395;SDS011;43222;52.912;6.940;2022-12-29T02:01:10;6.70;;;3.00;;
57395;SDS011;43222;52.912;6.940;2022-12-29T02:03:36;5.63;;;3.17;;
57395;SDS011;43222;52.912;6.940;2022-12-29T02:06:08;5.78;;;3.35;;
57395;SDS011;43222;52.912;6.940;2022-12-29T02:08:36;5.47;;;3.20;;
57395;SDS011;43222;52.912;6.940;2022-12-29T02:11:03;5.28;;;3.15;;
57395;SDS011;43222;52.912;6.940;2022-12-29T02:13:29;6.07;;;3.15;;
57395;SDS011;43222;52.912;6.940;2022-12-29T02:18:34;6.30;;;3.10;;
57395;SDS011;43222;52.912;6.940;2022-12-29T02:30:58;5.50;;;2.58;;
57395;SDS011;43222;52.912;6.940;2022-12-29T02:36:00;6.22;;;2.75;;
57395;SDS011;43222;52.912;6.940;2022-12-29T02:41:28;5.57;;;2.80;;
57395;SDS011;43222;52.912;6.940;2022-12-29T02:46:36;5.57;;;2.70;;
57395;SDS011;43222;52.912;6.940;2022-12-29T02:49:11;6.22;;;2.60;;
57395;SDS011;43222;52.912;6.940;2022-12-29T02:51:42;10.00;;;3.33;;
57395;SDS011;43222;52.912;6.940;2022-12-29T02:54:09;7.00;;;3.28;;
57395;SDS011;43222;52.912;6.940;2022-12-29T02:56:54;5.00;;;2.80;;
57395;SDS011;43222;52.912;6.940;2022-12-29T02:59:20;4.57;;;2.42;;
57395;SDS011;43222;52.912;6.940;2022-12-29T03:09:58;6.35;;;2.60;;
57395;SDS011;43222;52.912;6.940;2022-12-29T03:12:30;4.45;;;2.47;;
57395;SDS011;43222;52.912;6.940;2022-12-29T03:15:27;4.97;;;2.45;;
57395;SDS011;43222;52.912;6.940;2022-12-29T03:18:15;5.68;;;2.50;;
57395;SDS011;43222;52.912;6.940;2022-12-29T03:20:49;6.00;;;2.42;;
57395;SDS011;43222;52.912;6.940;2022-12-29T03:23:18;3.88;;;1.90;;
57395;SDS011;43222;52.912;6.940;2022-12-29T03:25:46;4.70;;;2.05;;
57395;SDS011;43222;52.912;6.940;2022-12-29T03:28:16;6.18;;;2.17;;
57395;SDS011;43222;52.912;6.940;2022-12-29T03:30:43;4.13;;;1.98;;
57395;SDS011;43222;52.912;6.940;2022-12-29T03:33:12;4.72;;;2.00;;
57395;SDS011;43222;52.912;6.940;2022-12-29T03:35:40;5.88;;;2.20;;
57395;SDS011;43222;52.912;6.940;2022-12-29T03:38:14;4.95;;;2.30;;
57395;SDS011;43222;52.912;6.940;2022-12-29T03:40:42;4.60;;;2.00;;
57395;SDS011;43222;52.912;6.940;2022-12-29T03:43:10;4.55;;;2.10;;
57395;SDS011;43222;52.912;6.940;2022-12-29T03:45:37;4.97;;;2.30;;
57395;SDS011;43222;52.912;6.940;2022-12-29T03:48:03;4.15;;;2.10;;
57395;SDS011;43222;52.912;6.940;2022-12-29T03:50:29;3.83;;;1.98;;
57395;SDS011;43222;52.912;6.940;2022-12-29T03:52:55;4.45;;;1.80;;
57395;SDS011;43222;52.912;6.940;2022-12-29T03:55:21;4.20;;;1.95;;
57395;SDS011;43222;52.912;6.940;2022-12-29T03:57:47;5.35;;;2.22;;
57395;SDS011;43222;52.912;6.940;2022-12-29T04:00:14;6.00;;;1.80;;
57395;SDS011;43222;52.912;6.940;2022-12-29T04:02:40;4.90;;;1.98;;
57395;SDS011;43222;52.912;6.940;2022-12-29T04:05:06;5.10;;;1.75;;
57395;SDS011;43222;52.912;6.940;2022-12-29T04:07:32;5.70;;;1.83;;
57395;SDS011;43222;52.912;6.940;2022-12-29T04:09:58;4.38;;;1.52;;
57395;SDS011;43222;52.912;6.940;2022-12-29T04:12:25;6.93;;;1.80;;
57395;SDS011;43222;52.912;6.940;2022-12-29T04:14:51;6.18;;;1.67;;
57395;SDS011;43222;52.912;6.940;2022-12-29T04:17:17;5.40;;;1.75;;
57395;SDS011;43222;52.912;6.940;2022-12-29T04:19:44;11.90;;;1.83;;
57395;SDS011;43222;52.912;6.940;2022-12-29T04:22:10;3.97;;;1.35;;
57395;SDS011;43222;52.912;6.940;2022-12-29T04:24:36;5.90;;;1.33;;
57395;SDS011;43222;52.912;6.940;2022-12-29T04:27:02;7.72;;;1.90;;
57395;SDS011;43222;52.912;6.940;2022-12-29T04:29:28;5.82;;;1.60;;
57395;SDS011;43222;52.912;6.940;2022-12-29T04:31:55;5.88;;;1.70;;
57395;SDS011;43222;52.912;6.940;2022-12-29T04:34:21;6.80;;;1.70;;
57395;SDS011;43222;52.912;6.940;2022-12-29T04:36:47;5.32;;;1.58;;
57395;SDS011;43222;52.912;6.940;2022-12-29T04:39:13;5.53;;;1.48;;
57395;SDS011;43222;52.912;6.940;2022-12-29T04:41:39;5.78;;;1.50;;
57395;SDS011;43222;52.912;6.940;2022-12-29T04:44:05;6.20;;;1.40;;
57395;SDS011;43222;52.912;6.940;2022-12-29T04:46:31;9.75;;;1.70;;
57395;SDS011;43222;52.912;6.940;2022-12-29T04:48:57;6.68;;;1.35;;
57395;SDS011;43222;52.912;6.940;2022-12-29T04:51:25;7.45;;;1.25;;
57395;SDS011;43222;52.912;6.940;2022-12-29T04:53:51;6.03;;;1.13;;
57395;SDS011;43222;52.912;6.940;2022-12-29T04:56:17;7.90;;;1.30;;
57395;SDS011;43222;52.912;6.940;2022-12-29T04:58:43;7.05;;;1.40;;
57395;SDS011;43222;52.912;6.940;2022-12-29T05:01:09;5.38;;;1.10;;
57395;SDS011;43222;52.912;6.940;2022-12-29T05:03:35;7.63;;;1.50;;
57395;SDS011;43222;52.912;6.940;2022-12-29T05:06:01;6.35;;;1.13;;
57395;SDS011;43222;52.912;6.940;2022-12-29T05:08:27;6.43;;;1.30;;
57395;SDS011;43222;52.912;6.940;2022-12-29T05:10:54;8.57;;;1.33;;
57395;SDS011;43222;52.912;6.940;2022-12-29T05:13:20;5.60;;;1.10;;
57395;SDS011;43222;52.912;6.940;2022-12-29T05:15:52;7.88;;;1.40;;
57395;SDS011;43222;52.912;6.940;2022-12-29T05:18:18;7.72;;;1.30;;
57395;SDS011;43222;52.912;6.940;2022-12-29T05:20:45;7.20;;;1.00;;
57395;SDS011;43222;52.912;6.940;2022-12-29T05:23:11;6.07;;;1.23;;
57395;SDS011;43222;52.912;6.940;2022-12-29T05:25:37;5.97;;;1.35;;
57395;SDS011;43222;52.912;6.940;2022-12-29T05:28:03;8.23;;;1.50;;
57395;SDS011;43222;52.912;6.940;2022-12-29T05:30:29;8.27;;;1.25;;
57395;SDS011;43222;52.912;6.940;2022-12-29T05:32:55;7.38;;;1.20;;
57395;SDS011;43222;52.912;6.940;2022-12-29T05:35:21;6.60;;;1.27;;
57395;SDS011;43222;52.912;6.940;2022-12-29T05:37:48;7.07;;;1.45;;
57395;SDS011;43222;52.912;6.940;2022-12-29T05:40:14;5.40;;;1.38;;
57395;SDS011;43222;52.912;6.940;2022-12-29T05:42:40;7.18;;;1.40;;
57395;SDS011;43222;52.912;6.940;2022-12-29T05:45:06;9.35;;;1.60;;
57395;SDS011;43222;52.912;6.940;2022-12-29T05:47:32;7.28;;;1.60;;
57395;SDS011;43222;52.912;6.940;2022-12-29T05:49:59;7.05;;;1.60;;
57395;SDS011;43222;52.912;6.940;2022-12-29T05:52:25;8.23;;;1.50;;
57395;SDS011;43222;52.912;6.940;2022-12-29T05:54:52;7.35;;;1.50;;
57395;SDS011;43222;52.912;6.940;2022-12-29T05:57:18;8.13;;;1.75;;
57395;SDS011;43222;52.912;6.940;2022-12-29T05:59:44;7.72;;;1.50;;
57395;SDS011;43222;52.912;6.940;2022-12-29T06:02:10;8.15;;;1.80;;
57395;SDS011;43222;52.912;6.940;2022-12-29T06:04:36;7.55;;;1.90;;
57395;SDS011;43222;52.912;6.940;2022-12-29T06:07:02;9.70;;;1.90;;
57395;SDS011;43222;52.912;6.940;2022-12-29T06:09:28;6.80;;;1.67;;
57395;SDS011;43222;52.912;6.940;2022-12-29T06:11:54;8.27;;;1.70;;
57395;SDS011;43222;52.912;6.940;2022-12-29T06:14:20;7.35;;;1.60;;
57395;SDS011;43222;52.912;6.940;2022-12-29T06:16:46;7.72;;;1.70;;
57395;SDS011;43222;52.912;6.940;2022-12-29T06:19:12;6.50;;;1.90;;
57395;SDS011;43222;52.912;6.940;2022-12-29T06:21:38;8.93;;;2.78;;
57395;SDS011;43222;52.912;6.940;2022-12-29T06:24:04;10.25;;;1.85;;
57395;SDS011;43222;52.912;6.940;2022-12-29T06:26:30;8.50;;;2.20;;
57395;SDS011;43222;52.912;6.940;2022-12-29T06:28:56;8.52;;;2.10;;
57395;SDS011;43222;52.912;6.940;2022-12-29T06:31:23;7.32;;;1.60;;
57395;SDS011;43222;52.912;6.940;2022-12-29T06:33:49;9.75;;;1.90;;
57395;SDS011;43222;52.912;6.940;2022-12-29T06:36:15;10.23;;;1.80;;
57395;SDS011;43222;52.912;6.940;2022-12-29T06:38:41;9.38;;;2.30;;
57395;SDS011;43222;52.912;6.940;2022-12-29T06:41:07;8.27;;;2.28;;
57395;SDS011;43222;52.912;6.940;2022-12-29T06:43:33;9.75;;;2.03;;
57395;SDS011;43222;52.912;6.940;2022-12-29T06:46:00;8.20;;;1.88;;
57395;SDS011;43222;52.912;6.940;2022-12-29T06:48:26;11.77;;;2.25;;
57395;SDS011;43222;52.912;6.940;2022-12-29T06:50:53;7.85;;;1.60;;
57395;SDS011;43222;52.912;6.940;2022-12-29T06:53:19;11.32;;;1.88;;
57395;SDS011;43222;52.912;6.940;2022-12-29T06:55:45;10.23;;;1.50;;
57395;SDS011;43222;52.912;6.940;2022-12-29T06:58:11;9.85;;;2.00;;
57395;SDS011;43222;52.912;6.940;2022-12-29T07:00:37;9.57;;;1.63;;
57395;SDS011;43222;52.912;6.940;2022-12-29T07:03:03;9.80;;;1.70;;
57395;SDS011;43222;52.912;6.940;2022-12-29T07:05:29;9.10;;;2.13;;
57395;SDS011;43222;52.912;6.940;2022-12-29T07:07:57;8.27;;;1.50;;
57395;SDS011;43222;52.912;6.940;2022-12-29T07:10:23;13.35;;;2.25;;
57395;SDS011;43222;52.912;6.940;2022-12-29T07:12:49;12.00;;;3.00;;
57395;SDS011;43222;52.912;6.940;2022-12-29T07:15:15;12.38;;;3.47;;
57395;SDS011;43222;52.912;6.940;2022-12-29T07:17:41;11.48;;;3.10;;
57395;SDS011;43222;52.912;6.940;2022-12-29T07:20:08;9.77;;;2.50;;
57395;SDS011;43222;52.912;6.940;2022-12-29T07:22:34;10.48;;;2.00;;
57395;SDS011;43222;52.912;6.940;2022-12-29T07:25:00;10.07;;;2.20;;
57395;SDS011;43222;52.912;6.940;2022-12-29T07:27:27;11.15;;;2.35;;
57395;SDS011;43222;52.912;6.940;2022-12-29T07:29:53;10.30;;;2.00;;
57395;SDS011;43222;52.912;6.940;2022-12-29T07:32:19;12.00;;;2.47;;
57395;SDS011;43222;52.912;6.940;2022-12-29T07:34:45;13.38;;;3.10;;
57395;SDS011;43222;52.912;6.940;2022-12-29T07:37:12;13.15;;;2.17;;
57395;SDS011;43222;52.912;6.940;2022-12-29T07:39:39;11.88;;;2.38;;
57395;SDS011;43222;52.912;6.940;2022-12-29T07:42:05;10.98;;;2.90;;
57395;SDS011;43222;52.912;6.940;2022-12-29T07:44:31;10.77;;;2.65;;
57395;SDS011;43222;52.912;6.940;2022-12-29T07:46:57;16.92;;;2.40;;
57395;SDS011;43222;52.912;6.940;2022-12-29T07:49:23;11.25;;;2.28;;
57395;SDS011;43222;52.912;6.940;2022-12-29T07:51:49;14.15;;;2.33;;
57395;SDS011;43222;52.912;6.940;2022-12-29T07:54:15;15.25;;;2.35;;
57395;SDS011;43222;52.912;6.940;2022-12-29T07:56:43;14.88;;;2.30;;
57395;SDS011;43222;52.912;6.940;2022-12-29T07:59:09;11.30;;;1.92;;
57395;SDS011;43222;52.912;6.940;2022-12-29T08:01:37;13.07;;;2.60;;
57395;SDS011;43222;52.912;6.940;2022-12-29T08:04:03;11.98;;;2.00;;
57395;SDS011;43222;52.912;6.940;2022-12-29T08:06:29;9.20;;;1.90;;
57395;SDS011;43222;52.912;6.940;2022-12-29T08:08:56;10.55;;;2.20;;
57395;SDS011;43222;52.912;6.940;2022-12-29T08:11:22;10.52;;;1.98;;
57395;SDS011;43222;52.912;6.940;2022-12-29T08:13:48;12.07;;;2.13;;
57395;SDS011;43222;52.912;6.940;2022-12-29T08:16:14;12.55;;;2.20;;
57395;SDS011;43222;52.912;6.940;2022-12-29T08:18:41;11.40;;;1.90;;
57395;SDS011;43222;52.912;6.940;2022-12-29T08:21:07;13.50;;;2.40;;
57395;SDS011;43222;52.912;6.940;2022-12-29T08:23:33;15.48;;;2.42;;
57395;SDS011;43222;52.912;6.940;2022-12-29T08:26:03;13.40;;;2.47;;
57395;SDS011;43222;52.912;6.940;2022-12-29T08:28:30;13.13;;;2.42;;
57395;SDS011;43222;52.912;6.940;2022-12-29T08:30:59;13.27;;;3.05;;
57395;SDS011;43222;52.912;6.940;2022-12-29T08:33:26;11.45;;;2.10;;
57395;SDS011;43222;52.912;6.940;2022-12-29T08:35:52;13.05;;;2.20;;
57395;SDS011;43222;52.912;6.940;2022-12-29T08:38:18;13.25;;;2.58;;
57395;SDS011;43222;52.912;6.940;2022-12-29T08:40:44;17.20;;;2.95;;
57395;SDS011;43222;52.912;6.940;2022-12-29T08:43:10;11.13;;;2.42;;
57395;SDS011;43222;52.912;6.940;2022-12-29T08:45:36;11.40;;;2.10;;
57395;SDS011;43222;52.912;6.940;2022-12-29T08:48:03;14.13;;;2.35;;
57395;SDS011;43222;52.912;6.940;2022-12-29T08:50:29;14.95;;;2.40;;
57395;SDS011;43222;52.912;6.940;2022-12-29T08:52:55;15.63;;;3.00;;
57395;SDS011;43222;52.912;6.940;2022-12-29T08:55:21;11.63;;;2.05;;
57395;SDS011;43222;52.912;6.940;2022-12-29T08:57:47;15.50;;;2.47;;
57395;SDS011;43222;52.912;6.940;2022-12-29T09:00:13;11.95;;;1.92;;
57395;SDS011;43222;52.912;6.940;2022-12-29T09:02:40;14.10;;;2.30;;
57395;SDS011;43222;52.912;6.940;2022-12-29T09:05:06;12.90;;;2.20;;
57395;SDS011;43222;52.912;6.940;2022-12-29T09:07:32;14.55;;;2.45;;
57395;SDS011;43222;52.912;6.940;2022-12-29T09:09:58;15.00;;;2.67;;
57395;SDS011;43222;52.912;6.940;2022-12-29T09:12:24;10.15;;;2.10;;
57395;SDS011;43222;52.912;6.940;2022-12-29T09:14:50;14.10;;;2.40;;
57395;SDS011;43222;52.912;6.940;2022-12-29T09:17:16;13.43;;;1.85;;
57395;SDS011;43222;52.912;6.940;2022-12-29T09:20:01;8.32;;;2.17;;
57395;SDS011;43222;52.912;6.940;2022-12-29T09:22:28;16.05;;;2.05;;
57395;SDS011;43222;52.912;6.940;2022-12-29T09:24:54;9.60;;;1.75;;
57395;SDS011;43222;52.912;6.940;2022-12-29T09:27:20;10.10;;;1.73;;
57395;SDS011;43222;52.912;6.940;2022-12-29T09:29:46;11.48;;;1.80;;
57395;SDS011;43222;52.912;6.940;2022-12-29T09:32:12;10.43;;;1.92;;
57395;SDS011;43222;52.912;6.940;2022-12-29T09:34:38;11.52;;;2.55;;
57395;SDS011;43222;52.912;6.940;2022-12-29T09:37:04;15.07;;;2.13;;
57395;SDS011;43222;52.912;6.940;2022-12-29T09:39:30;12.30;;;2.47;;
57395;SDS011;43222;52.912;6.940;2022-12-29T09:44:39;11.95;;;2.25;;
57395;SDS011;43222;52.912;6.940;2022-12-29T09:47:09;9.10;;;1.85;;
57395;SDS011;43222;52.912;6.940;2022-12-29T09:52:11;11.27;;;2.03;;
57395;SDS011;43222;52.912;6.940;2022-12-29T09:54:40;10.55;;;2.67;;
57395;SDS011;43222;52.912;6.940;2022-12-29T09:57:13;11.73;;;2.20;;
57395;SDS011;43222;52.912;6.940;2022-12-29T09:59:41;13.35;;;2.70;;
57395;SDS011;43222;52.912;6.940;2022-12-29T10:04:43;12.48;;;2.00;;
57395;SDS011;43222;52.912;6.940;2022-12-29T10:07:24;13.05;;;2.58;;
57395;SDS011;43222;52.912;6.940;2022-12-29T10:19:59;11.35;;;2.10;;
57395;SDS011;43222;52.912;6.940;2022-12-29T10:24:53;12.35;;;2.45;;
57395;SDS011;43222;52.912;6.940;2022-12-29T10:27:21;12.02;;;1.88;;
57395;SDS011;43222;52.912;6.940;2022-12-29T10:29:52;10.98;;;2.65;;
57395;SDS011;43222;52.912;6.940;2022-12-29T10:34:47;10.82;;;2.10;;
57395;SDS011;43222;52.912;6.940;2022-12-29T10:37:24;13.77;;;2.40;;
57395;SDS011;43222;52.912;6.940;2022-12-29T10:39:55;10.45;;;2.25;;
57395;SDS011;43222;52.912;6.940;2022-12-29T10:42:28;13.95;;;2.38;;
57395;SDS011;43222;52.912;6.940;2022-12-29T10:44:55;11.77;;;2.10;;
57395;SDS011;43222;52.912;6.940;2022-12-29T10:47:23;13.30;;;2.60;;
57395;SDS011;43222;52.912;6.940;2022-12-29T10:49:50;12.02;;;2.63;;
57395;SDS011;43222;52.912;6.940;2022-12-29T10:52:17;13.27;;;2.10;;
57395;SDS011;43222;52.912;6.940;2022-12-29T10:59:41;13.65;;;2.33;;
57395;SDS011;43222;52.912;6.940;2022-12-29T11:07:22;10.70;;;2.13;;
57395;SDS011;43222;52.912;6.940;2022-12-29T11:09:48;11.02;;;2.00;;
57395;SDS011;43222;52.912;6.940;2022-12-29T11:12:22;10.82;;;2.38;;
57395;SDS011;43222;52.912;6.940;2022-12-29T11:17:27;9.63;;;2.55;;
57395;SDS011;43222;52.912;6.940;2022-12-29T11:19:53;12.00;;;2.45;;
57395;SDS011;43222;52.912;6.940;2022-12-29T11:22:21;12.10;;;2.38;;
57395;SDS011;43222;52.912;6.940;2022-12-29T11:24:48;14.20;;;2.10;;
57395;SDS011;43222;52.912;6.940;2022-12-29T11:27:24;10.25;;;1.92;;
57395;SDS011;43222;52.912;6.940;2022-12-29T11:29:52;11.95;;;2.22;;
57395;SDS011;43222;52.912;6.940;2022-12-29T11:32:22;11.20;;;1.73;;
57395;SDS011;43222;52.912;6.940;2022-12-29T11:34:49;9.67;;;1.80;;
57395;SDS011;43222;52.912;6.940;2022-12-29T11:37:31;9.90;;;2.30;;
57395;SDS011;43222;52.912;6.940;2022-12-29T11:40:18;10.48;;;2.58;;
57395;SDS011;43222;52.912;6.940;2022-12-29T11:42:49;7.78;;;2.13;;
57395;SDS011;43222;52.912;6.940;2022-12-29T11:45:18;8.23;;;2.20;;
57395;SDS011;43222;52.912;6.940;2022-12-29T11:47:45;12.88;;;2.85;;
57395;SDS011;43222;52.912;6.940;2022-12-29T11:53:23;16.17;;;3.20;;
57395;SDS011;43222;52.912;6.940;2022-12-29T11:56:30;11.77;;;2.80;;
57395;SDS011;43222;52.912;6.940;2022-12-29T11:58:44;15.25;;;2.97;;
57395;SDS011;43222;52.912;6.940;2022-12-29T12:01:17;12.07;;;3.30;;
57395;SDS011;43222;52.912;6.940;2022-12-29T12:03:48;12.60;;;2.85;;
57395;SDS011;43222;52.912;6.940;2022-12-29T12:06:19;15.43;;;3.35;;
57395;SDS011;43222;52.912;6.940;2022-12-29T12:09:07;13.88;;;3.40;;
57395;SDS011;43222;52.912;6.940;2022-12-29T12:11:38;17.05;;;3.45;;
57395;SDS011;43222;52.912;6.940;2022-12-29T12:14:12;10.45;;;3.08;;
57395;SDS011;43222;52.912;6.940;2022-12-29T12:16:41;16.77;;;2.75;;
57395;SDS011;43222;52.912;6.940;2022-12-29T12:19:12;14.10;;;3.10;;
57395;SDS011;43222;52.912;6.940;2022-12-29T12:21:40;14.93;;;2.47;;
57395;SDS011;43222;52.912;6.940;2022-12-29T12:26:55;16.77;;;3.17;;
57395;SDS011;43222;52.912;6.940;2022-12-29T12:29:38;13.27;;;2.95;;
57395;SDS011;43222;52.912;6.940;2022-12-29T12:32:23;14.70;;;3.00;;
57395;SDS011;43222;52.912;6.940;2022-12-29T12:34:50;15.13;;;3.10;;
57395;SDS011;43222;52.912;6.940;2022-12-29T12:48:14;15.10;;;2.88;;
57395;SDS011;43222;52.912;6.940;2022-12-29T13:03:18;14.73;;;3.30;;
57395;SDS011;43222;52.912;6.940;2022-12-29T13:06:04;13.88;;;2.80;;
57395;SDS011;43222;52.912;6.940;2022-12-29T13:08:48;13.90;;;3.00;;
57395;SDS011;43222;52.912;6.940;2022-12-29T13:19:19;17.52;;;3.17;;
57395;SDS011;43222;52.912;6.940;2022-12-29T13:22:07;14.77;;;2.78;;
57395;SDS011;43222;52.912;6.940;2022-12-29T13:24:39;15.77;;;3.00;;
57395;SDS011;43222;52.912;6.940;2022-12-29T13:29:40;16.33;;;3.10;;
57395;SDS011;43222;52.912;6.940;2022-12-29T13:32:17;16.73;;;3.20;;
57395;SDS011;43222;52.912;6.940;2022-12-29T13:37:26;18.00;;;2.58;;
57395;SDS011;43222;52.912;6.940;2022-12-29T13:39:57;15.57;;;3.00;;
57395;SDS011;43222;52.912;6.940;2022-12-29T13:42:24;17.35;;;3.35;;
57395;SDS011;43222;52.912;6.940;2022-12-29T13:44:59;15.63;;;2.63;;
57395;SDS011;43222;52.912;6.940;2022-12-29T13:49:51;17.52;;;2.45;;
57395;SDS011;43222;52.912;6.940;2022-12-29T13:52:21;15.02;;;3.00;;
57395;SDS011;43222;52.912;6.940;2022-12-29T13:59:59;15.35;;;2.70;;
57395;SDS011;43222;52.912;6.940;2022-12-29T14:07:44;13.98;;;3.42;;
57395;SDS011;43222;52.912;6.940;2022-12-29T14:12:59;20.38;;;3.28;;
57395;SDS011;43222;52.912;6.940;2022-12-29T14:15:26;21.90;;;3.00;;
57395;SDS011;43222;52.912;6.940;2022-12-29T14:18:09;18.98;;;3.45;;
57395;SDS011;43222;52.912;6.940;2022-12-29T14:20:36;17.45;;;2.85;;
57395;SDS011;43222;52.912;6.940;2022-12-29T14:25:52;20.20;;;3.10;;
57395;SDS011;43222;52.912;6.940;2022-12-29T14:30:52;15.40;;;3.45;;
57395;SDS011;43222;52.912;6.940;2022-12-29T14:33:18;15.20;;;2.72;;
57395;SDS011;43222;52.912;6.940;2022-12-29T14:35:46;16.77;;;3.13;;
57395;SDS011;43222;52.912;6.940;2022-12-29T14:40:40;19.98;;;3.47;;
57395;SDS011;43222;52.912;6.940;2022-12-29T14:43:11;20.90;;;3.83;;
57395;SDS011;43222;52.912;6.940;2022-12-29T14:45:38;15.23;;;3.83;;
57395;SDS011;43222;52.912;6.940;2022-12-29T14:48:27;16.67;;;3.25;;
57395;SDS011;43222;52.912;6.940;2022-12-29T14:50:55;15.30;;;3.13;;
57395;SDS011;43222;52.912;6.940;2022-12-29T14:56:08;14.55;;;3.35;;
57395;SDS011;43222;52.912;6.940;2022-12-29T14:58:41;21.55;;;4.55;;
57395;SDS011;43222;52.912;6.940;2022-12-29T15:01:52;15.98;;;3.92;;
57395;SDS011;43222;52.912;6.940;2022-12-29T15:04:00;18.75;;;4.22;;
57395;SDS011;43222;52.912;6.940;2022-12-29T15:06:29;20.85;;;4.25;;
57395;SDS011;43222;52.912;6.940;2022-12-29T15:11:44;15.55;;;2.95;;
57395;SDS011;43222;52.912;6.940;2022-12-29T15:16:54;17.88;;;3.03;;
57395;SDS011;43222;52.912;6.940;2022-12-29T15:19:21;16.23;;;3.25;;
57395;SDS011;43222;52.912;6.940;2022-12-29T15:21:48;16.40;;;3.13;;
57395;SDS011;43222;52.912;6.940;2022-12-29T15:24:14;16.83;;;3.10;;
57395;SDS011;43222;52.912;6.940;2022-12-29T15:26:41;15.88;;;3.22;;
57395;SDS011;43222;52.912;6.940;2022-12-29T15:29:29;17.83;;;3.70;;
57395;SDS011;43222;52.912;6.940;2022-12-29T15:32:00;19.15;;;3.35;;
57395;SDS011;43222;52.912;6.940;2022-12-29T15:34:29;13.95;;;2.78;;
57395;SDS011;43222;52.912;6.940;2022-12-29T15:36:55;15.73;;;3.40;;
57395;SDS011;43222;52.912;6.940;2022-12-29T15:39:29;18.52;;;3.38;;
57395;SDS011;43222;52.912;6.940;2022-12-29T15:41:56;18.48;;;4.03;;
57395;SDS011;43222;52.912;6.940;2022-12-29T15:46:53;17.17;;;3.45;;
57395;SDS011;43222;52.912;6.940;2022-12-29T15:49:19;18.15;;;3.17;;
57395;SDS011;43222;52.912;6.940;2022-12-29T15:51:46;14.98;;;3.22;;
57395;SDS011;43222;52.912;6.940;2022-12-29T15:54:14;18.75;;;4.07;;
57395;SDS011;43222;52.912;6.940;2022-12-29T15:56:41;14.80;;;3.33;;
57395;SDS011;43222;52.912;6.940;2022-12-29T15:59:22;15.93;;;3.05;;
57395;SDS011;43222;52.912;6.940;2022-12-29T16:01:48;16.92;;;3.88;;
57395;SDS011;43222;52.912;6.940;2022-12-29T16:04:14;17.23;;;4.38;;
57395;SDS011;43222;52.912;6.940;2022-12-29T16:06:44;17.50;;;3.47;;
57395;SDS011;43222;52.912;6.940;2022-12-29T16:09:28;18.02;;;3.08;;
57395;SDS011;43222;52.912;6.940;2022-12-29T16:11:55;17.52;;;3.60;;
57395;SDS011;43222;52.912;6.940;2022-12-29T16:14:33;16.38;;;3.25;;
57395;SDS011;43222;52.912;6.940;2022-12-29T16:17:01;19.48;;;3.47;;
57395;SDS011;43222;52.912;6.940;2022-12-29T16:19:31;25.58;;;8.82;;
57395;SDS011;43222;52.912;6.940;2022-12-29T16:21:58;16.20;;;3.90;;
57395;SDS011;43222;52.912;6.940;2022-12-29T16:24:26;19.75;;;4.07;;
57395;SDS011;43222;52.912;6.940;2022-12-29T16:26:59;15.55;;;4.57;;
57395;SDS011;43222;52.912;6.940;2022-12-29T16:29:26;14.70;;;3.70;;
57395;SDS011;43222;52.912;6.940;2022-12-29T16:31:55;14.65;;;3.65;;
57395;SDS011;43222;52.912;6.940;2022-12-29T16:34:48;16.23;;;3.25;;
57395;SDS011;43222;52.912;6.940;2022-12-29T16:37:31;15.00;;;3.92;;
57395;SDS011;43222;52.912;6.940;2022-12-29T16:48:32;12.93;;;4.05;;
57395;SDS011;43222;52.912;6.940;2022-12-29T16:50:34;12.90;;;3.83;;
57395;SDS011;43222;52.912;6.940;2022-12-29T16:53:01;12.30;;;3.00;;
57395;SDS011;43222;52.912;6.940;2022-12-29T16:55:28;14.57;;;4.22;;
57395;SDS011;43222;52.912;6.940;2022-12-29T16:57:54;12.43;;;3.90;;
57395;SDS011;43222;52.912;6.940;2022-12-29T17:00:24;16.80;;;4.10;;
57395;SDS011;43222;52.912;6.940;2022-12-29T17:02:51;14.00;;;3.70;;
57395;SDS011;43222;52.912;6.940;2022-12-29T17:05:18;13.52;;;3.92;;
57395;SDS011;43222;52.912;6.940;2022-12-29T17:07:45;13.85;;;3.45;;
57395;SDS011;43222;52.912;6.940;2022-12-29T17:10:11;12.07;;;3.28;;
57395;SDS011;43222;52.912;6.940;2022-12-29T17:12:40;13.02;;;2.70;;
57395;SDS011;43222;52.912;6.940;2022-12-29T17:15:14;8.50;;;1.50;;
57395;SDS011;43222;52.912;6.940;2022-12-29T17:17:44;4.95;;;1.30;;
57395;SDS011;43222;52.912;6.940;2022-12-29T17:20:22;6.75;;;1.73;;
57395;SDS011;43222;52.912;6.940;2022-12-29T17:22:48;6.43;;;1.40;;
57395;SDS011;43222;52.912;6.940;2022-12-29T17:25:18;4.75;;;1.02;;